Time;durP1;ratioP1;P1;durP2;ratioP2;P2;SDS_P1;SDS_P2;PMS_P1;PMS_P2;Temp;Humidity;BMP_temperature;BMP_pressure;BME280_temperature;BME280_humidity;BME280_pressure;Samples;Min_cycle;Max_cycle;Signal;HPM_P1;HPM_P2
2022/10/21 00:02:35;;;;;;;24.95;15.65;;;;;;;1.51;100.00;99407.61;2097650;85;22122;-92
2022/10/21 00:05:35;;;;;;;24.72;15.95;;;;;;;1.51;100.00;99406.32;2097946;85;21025;-93
2022/10/21 00:08:36;;;;;;;22.62;13.90;;;;;;;1.52;100.00;99415.71;2097524;85;20957;-92
2022/10/21 00:11:36;;;;;;;27.10;15.65;;;;;;;1.49;100.00;99406.90;2100216;85;20976;-88
2022/10/21 00:14:37;;;;;;;23.95;14.63;;;;;;;1.47;100.00;99408.77;2101799;84;21006;-91
2022/10/21 00:17:38;;;;;;;20.15;12.68;;;;;;;1.43;100.00;99411.53;2100802;85;21536;-92
2022/10/21 00:20:39;;;;;;;22.90;15.15;;;;;;;1.42;100.00;99400.03;2100405;85;21024;-89
2022/10/21 00:23:39;;;;;;;25.45;16.82;;;;;;;1.40;100.00;99391.58;2100072;85;21020;-90
2022/10/21 00:26:40;;;;;;;30.00;18.30;;;;;;;1.39;100.00;99397.67;2099474;85;20989;-91
2022/10/21 00:29:41;;;;;;;23.95;15.55;;;;;;;1.37;100.00;99402.09;2088361;85;21080;-91
2022/10/21 00:32:42;;;;;;;21.65;15.00;;;;;;;1.37;100.00;99399.07;2087757;85;21013;-90
2022/10/21 00:35:42;;;;;;;27.60;16.70;;;;;;;1.36;100.00;99401.27;2087651;85;21020;-90
2022/10/21 00:38:43;;;;;;;27.37;17.70;;;;;;;1.35;100.00;99397.03;2088037;85;21040;-90
2022/10/21 00:41:44;;;;;;;24.45;16.10;;;;;;;1.34;100.00;99390.69;2087811;85;21013;-91
2022/10/21 00:44:44;;;;;;;25.82;17.12;;;;;;;1.31;100.00;99377.55;2087688;85;21013;-91
2022/10/21 00:47:45;;;;;;;25.57;17.48;;;;;;;1.28;100.00;99381.64;2027411;88;21165;-91
2022/10/21 00:50:47;;;;;;;28.15;18.27;;;;;;;1.27;100.00;99373.51;2027210;88;20970;-91
2022/10/21 00:53:47;;;;;;;28.20;17.65;;;;;;;1.27;100.00;99372.22;2026941;88;21045;-91
2022/10/21 00:56:48;;;;;;;32.15;19.92;;;;;;;1.25;100.00;99352.62;2076036;85;20964;-90
2022/10/21 00:59:49;;;;;;;53.05;36.80;;;;;;;1.24;100.00;99337.61;2075595;85;20988;-90
2022/10/21 01:02:49;;;;;;;26.15;17.00;;;;;;;1.25;100.00;99316.03;2075837;86;20983;-91
2022/10/21 01:05:50;;;;;;;27.82;17.42;;;;;;;1.28;100.00;99305.52;2079376;85;20969;-88
2022/10/21 01:08:53;;;;;;;28.55;19.37;;;;;;;1.30;100.00;99304.12;2034389;88;21079;-88
2022/10/21 01:11:53;;;;;;;31.85;22.50;;;;;;;1.30;100.00;99298.96;2034046;88;21076;-89
2022/10/21 01:14:54;;;;;;;41.53;28.60;;;;;;;1.30;100.00;99292.52;2033973;88;21013;-90
2022/10/21 01:17:55;;;;;;;42.90;29.50;;;;;;;1.29;100.00;99290.86;2032945;88;21012;-90
2022/10/21 01:20:56;;;;;;;41.58;28.27;;;;;;;1.29;100.00;99295.56;2033131;87;21499;-90
2022/10/21 01:23:56;;;;;;;28.73;20.23;;;;;;;1.29;100.00;99308.45;2033503;87;21004;-89
2022/10/21 01:26:57;;;;;;;27.17;16.97;;;;;;;1.30;100.00;99318.31;2033374;87;21095;-90
2022/10/21 01:29:58;;;;;;;22.32;15.43;;;;;;;1.31;100.00;99314.80;2041669;87;21077;-91
2022/10/21 01:32:58;;;;;;;28.90;16.00;;;;;;;1.32;100.00;99317.27;2112050;84;21584;-92
2022/10/21 01:35:59;;;;;;;25.23;15.93;;;;;;;1.31;100.00;99304.48;2053165;87;21000;-90
2022/10/21 01:39:00;;;;;;;30.82;17.20;;;;;;;1.29;100.00;99306.34;2051731;87;21021;-90
2022/10/21 01:42:02;;;;;;;24.65;15.93;;;;;;;1.30;100.00;99304.12;2031569;86;21016;-90
2022/10/21 01:45:02;;;;;;;25.50;16.75;;;;;;;1.31;100.00;99309.64;2082469;85;21596;-91
2022/10/21 01:48:03;;;;;;;26.93;16.80;;;;;;;1.30;100.00;99308.81;2063995;86;21045;-90
2022/10/21 01:51:04;;;;;;;31.52;18.40;;;;;;;1.32;100.00;99307.41;2033662;88;21037;-90
2022/10/21 01:54:05;;;;;;;26.93;17.15;;;;;;;1.32;100.00;99307.41;2033485;88;21013;-92
2022/10/21 01:57:05;;;;;;;31.82;19.25;;;;;;;1.29;100.00;99305.88;2033630;88;21044;-90
2022/10/21 02:00:06;;;;;;;27.02;17.87;;;;;;;1.32;100.00;99316.45;2063436;86;20985;-91
2022/10/21 02:03:07;;;;;;;26.95;16.42;;;;;;;1.29;100.00;99307.17;2071113;86;20981;-92
2022/10/21 02:06:07;;;;;;;23.85;14.85;;;;;;;1.27;100.00;99311.59;2071657;86;21037;-90
2022/10/21 02:09:08;;;;;;;26.10;16.30;;;;;;;1.25;100.00;99305.72;2070874;86;21012;-90
2022/10/21 02:12:09;;;;;;;30.55;19.70;;;;;;;1.22;100.00;99302.53;2062678;86;21338;-91
2022/10/21 02:15:09;;;;;;;35.38;24.25;;;;;;;1.20;100.00;99301.36;2032085;87;20977;-91
2022/10/21 02:18:10;;;;;;;29.07;18.98;;;;;;;1.18;100.00;99304.48;2031026;87;20989;-90
2022/10/21 02:21:11;;;;;;;40.92;26.45;;;;;;;1.16;100.00;99305.06;2030830;88;21056;-90
2022/10/21 02:24:12;;;;;;;33.23;22.15;;;;;;;1.13;100.00;99303.52;2031135;88;21016;-91
2022/10/21 02:27:12;;;;;;;36.98;25.00;;;;;;;1.13;100.00;99297.55;2031885;87;21553;-91
2022/10/21 02:30:13;;;;;;;38.95;24.35;;;;;;;1.12;100.00;99299.30;2036019;86;21036;-90
2022/10/21 02:33:14;;;;;;;32.67;21.50;;;;;;;1.11;100.00;99291.67;2068429;86;21057;-90
2022/10/21 02:36:14;;;;;;;32.00;18.87;;;;;;;1.07;100.00;99287.17;2068464;86;21024;-90
2022/10/21 02:39:15;;;;;;;37.65;22.55;;;;;;;1.03;100.00;99274.14;2066087;86;21017;-91
2022/10/21 02:42:16;;;;;;;49.27;32.23;;;;;;;0.99;100.00;99266.70;2068407;86;21029;-90
2022/10/21 02:45:17;;;;;;;54.27;39.45;;;;;;;0.96;100.00;99262.59;2068364;86;21615;-89
2022/10/21 02:48:17;;;;;;;67.62;48.52;;;;;;;0.94;100.00;99267.50;2072302;86;22133;-89
2022/10/21 02:51:18;;;;;;;56.63;39.85;;;;;;;0.94;100.00;99264.92;2073948;86;20989;-91
2022/10/21 02:54:18;;;;;;;51.45;32.98;;;;;;;0.90;100.00;99264.28;2074059;86;21076;-91
2022/10/21 02:57:19;;;;;;;41.25;22.95;;;;;;;0.89;100.00;99263.11;2073951;86;21067;-91
2022/10/21 03:00:20;;;;;;;38.50;22.07;;;;;;;0.85;100.00;99261.22;2071905;86;20997;-92
2022/10/21 03:03:21;;;;;;;41.33;27.62;;;;;;;0.84;100.00;99248.80;2073835;86;20992;-93
2022/10/21 03:06:21;;;;;;;32.15;19.23;;;;;;;0.83;100.00;99245.03;2074071;86;21563;-91
2022/10/21 03:09:22;;;;;;;48.42;31.50;;;;;;;0.82;100.00;99234.34;2060613;86;20976;-91
2022/10/21 03:12:23;;;;;;;51.70;35.28;;;;;;;0.80;100.00;99241.36;2048314;86;21004;-91
2022/10/21 03:15:24;;;;;;;47.83;30.37;;;;;;;0.78;100.00;99244.52;2102435;84;20933;-91
2022/10/21 03:18:24;;;;;;;39.48;26.45;;;;;;;0.76;100.00;99243.33;2113527;84;20984;-90
2022/10/21 03:21:25;;;;;;;44.65;30.65;;;;;;;0.76;100.00;99229.63;2110634;84;20992;-91
2022/10/21 03:24:26;;;;;;;42.13;26.50;;;;;;;0.76;100.00;99224.47;2108914;84;20977;-89
2022/10/21 03:27:27;;;;;;;43.17;27.82;;;;;;;0.73;100.00;99214.34;2080442;85;20973;-89
2022/10/21 03:30:27;;;;;;;54.48;36.20;;;;;;;0.72;100.00;99216.09;2080814;85;20993;-88
2022/10/21 03:33:28;;;;;;;56.37;36.68;;;;;;;0.70;100.00;99215.85;2100494;84;21060;-90
2022/10/21 03:36:29;;;;;;;40.17;25.68;;;;;;;0.72;100.00;99219.97;2114183;84;21523;-92
2022/10/21 03:39:29;;;;;;;35.68;22.62;;;;;;;0.73;100.00;99222.08;2116166;84;21060;-91
2022/10/21 03:42:30;;;;;;;37.70;22.87;;;;;;;0.71;100.00;99229.92;2116274;84;20961;-91
2022/10/21 03:45:31;;;;;;;36.08;22.10;;;;;;;0.70;100.00;99221.01;2076189;84;20992;-90
2022/10/21 03:48:32;;;;;;;46.73;29.60;;;;;;;0.69;100.00;99215.50;2045235;87;21041;-91
2022/10/21 03:51:32;;;;;;;47.27;30.30;;;;;;;0.69;100.00;99209.88;2045679;87;21497;-88
2022/10/21 03:54:33;;;;;;;40.30;27.52;;;;;;;0.67;100.00;99214.31;2054317;85;21016;-89
2022/10/21 03:57:34;;;;;;;35.45;23.22;;;;;;;0.66;100.00;99210.09;2063823;86;20965;-92
2022/10/21 04:00:35;;;;;;;35.50;19.98;;;;;;;0.65;100.00;99211.49;2077745;86;21567;-92
2022/10/21 04:03:35;;;;;;;32.42;19.15;;;;;;;0.64;100.00;99211.11;2052675;86;21531;-90
2022/10/21 04:06:36;;;;;;;32.83;19.30;;;;;;;0.61;100.00;99210.03;2043099;87;21000;-90
2022/10/21 04:09:37;;;;;;;34.67;21.65;;;;;;;0.59;100.00;99202.88;2042760;87;21020;-87
2022/10/21 04:12:37;;;;;;;30.80;19.02;;;;;;;0.56;100.00;99197.48;2104329;84;20988;-86
2022/10/21 04:15:38;;;;;;;37.93;26.12;;;;;;;0.56;100.00;99178.98;2117502;84;21535;-85
2022/10/21 04:18:39;;;;;;;47.43;30.20;;;;;;;0.49;100.00;99176.45;2117260;84;21000;-85
2022/10/21 04:21:39;;;;;;;50.15;31.57;;;;;;;0.48;100.00;99176.56;2109230;84;21015;-86
2022/10/21 04:24:40;;;;;;;43.13;27.17;;;;;;;0.47;100.00;99173.62;2116123;84;20945;-86
2022/10/21 04:27:41;;;;;;;39.50;22.10;;;;;;;0.46;100.00;99166.36;2118426;84;21622;-91
2022/10/21 04:30:42;;;;;;;35.83;22.50;;;;;;;0.48;100.00;99155.95;2113874;84;21007;-88
2022/10/21 04:33:42;;;;;;;38.15;23.25;;;;;;;0.46;100.00;99163.78;2078754;86;21024;-89
2022/10/21 04:36:43;;;;;;;38.45;20.52;;;;;;;0.49;100.00;99163.56;2043593;87;21028;-90
2022/10/21 04:39:44;;;;;;;32.53;19.12;;;;;;;0.48;100.00;99157.23;2043067;87;21081;-87
2022/10/21 04:42:44;;;;;;;31.40;18.48;;;;;;;0.48;100.00;99163.20;2059992;86;21005;-87
2022/10/21 04:45:45;;;;;;;30.95;20.72;;;;;;;0.46;100.00;99154.77;2081388;86;21040;-86
2022/10/21 04:48:46;;;;;;;33.15;20.60;;;;;;;0.47;100.00;99160.74;2081579;86;21020;-86
2022/10/21 04:51:47;;;;;;;31.17;18.42;;;;;;;0.48;100.00;99164.97;2070795;86;20987;-87
2022/10/21 04:54:48;;;;;;;33.48;20.35;;;;;;;0.45;100.00;99157.42;2025032;87;21052;-89
2022/10/21 04:57:48;;;;;;;34.98;20.35;;;;;;;0.46;100.00;99165.08;2077322;86;20938;-88
2022/10/21 05:00:49;;;;;;;33.63;19.42;;;;;;;0.48;100.00;99168.83;2077250;85;21013;-88
2022/10/21 05:03:50;;;;;;;31.50;19.00;;;;;;;0.48;100.00;99173.52;2042699;87;20993;-87
2022/10/21 05:06:50;;;;;;;32.58;18.65;;;;;;;0.46;100.00;99159.92;2042978;87;21001;-87
2022/10/21 05:09:51;;;;;;;37.42;20.17;;;;;;;0.46;100.00;99166.83;2053989;86;21558;-88
2022/10/21 05:12:52;;;;;;;41.83;22.95;;;;;;;0.46;100.00;99168.12;2045635;86;21588;-86
2022/10/21 05:15:53;;;;;;;33.15;21.05;;;;;;;0.47;100.00;99164.14;2007918;89;21032;-88
2022/10/21 05:18:54;;;;;;;38.08;22.80;;;;;;;0.47;100.00;99165.89;2042222;87;21012;-86
2022/10/21 05:21:54;;;;;;;38.98;22.87;;;;;;;0.51;100.00;99167.32;2008669;87;20980;-86
2022/10/21 05:24:55;;;;;;;38.73;22.05;;;;;;;0.53;100.00;99168.03;2009186;89;21025;-88
2022/10/21 05:27:56;;;;;;;32.98;20.45;;;;;;;0.58;100.00;99178.04;2077764;85;21036;-88
2022/10/21 05:30:57;;;;;;;36.40;21.55;;;;;;;0.61;100.00;99158.02;2084160;84;21024;-87
2022/10/21 05:33:57;;;;;;;33.18;20.10;;;;;;;0.65;100.00;99154.79;2117687;84;21008;-87
2022/10/21 05:36:58;;;;;;;37.60;24.05;;;;;;;0.69;100.00;99155.75;2117361;84;20972;-89
2022/10/21 05:39:59;;;;;;;36.77;23.92;;;;;;;0.74;100.00;99160.59;2117053;84;21019;-88
2022/10/21 05:43:00;;;;;;;33.95;23.50;;;;;;;0.78;100.00;99158.16;2083047;84;20992;-86
2022/10/21 05:46:00;;;;;;;41.23;24.30;;;;;;;0.82;100.00;99161.71;2078004;85;21488;-85
2022/10/21 05:49:01;;;;;;;35.25;22.07;;;;;;;0.89;100.00;99158.69;2080649;85;21030;-86
2022/10/21 05:52:02;;;;;;;36.60;22.77;;;;;;;0.99;100.00;99164.84;2080208;85;20957;-85
2022/10/21 05:55:03;;;;;;;32.23;20.52;;;;;;;1.10;100.00;99168.33;2080839;85;20950;-86
2022/10/21 05:58:04;;;;;;;31.45;20.52;;;;;;;1.17;100.00;99157.09;2080608;86;21533;-85
2022/10/21 06:01:04;;;;;;;33.63;23.10;;;;;;;1.21;100.00;99157.71;2083250;84;20941;-85
2022/10/21 06:04:05;;;;;;;33.33;21.20;;;;;;;1.26;100.00;99155.61;2107659;84;20996;-87
2022/10/21 06:07:06;;;;;;;33.40;20.68;;;;;;;1.36;100.00;99160.00;2104185;84;21044;-87
2022/10/21 06:10:07;;;;;;;33.40;20.97;;;;;;;1.52;100.00;99170.52;2104129;85;21032;-87
2022/10/21 06:13:07;;;;;;;33.35;20.37;;;;;;;1.64;100.00;99163.16;2085304;85;20977;-87
2022/10/21 06:16:08;;;;;;;42.30;21.25;;;;;;;1.77;100.00;99162.63;2086489;85;20974;-86
2022/10/21 06:19:11;;;;;;;30.05;19.62;;;;;;;1.91;100.00;99162.42;2085412;85;21073;-86
2022/10/21 06:22:12;;;;;;;32.25;21.37;;;;;;;2.09;100.00;99145.20;2086936;85;21028;-90
2022/10/21 06:25:12;;;;;;;32.95;20.40;;;;;;;2.26;100.00;99144.28;2087253;85;20985;-85
2022/10/21 06:28:13;;;;;;;34.43;21.90;;;;;;;2.45;100.00;99154.03;2097777;85;21033;-86
2022/10/21 06:31:20;;;;;;;27.90;18.67;;;;;;;2.66;100.00;99177.91;2095424;85;21516;-86
2022/10/21 06:34:18;;;;;;;24.40;18.40;;;;;;;2.82;100.00;99177.05;2086337;85;21042;-89
2022/10/21 06:37:19;;;;;;;29.70;19.67;;;;;;;2.89;100.00;99172.23;2085368;85;21102;-89
2022/10/21 06:40:22;;;;;;;30.55;19.98;;;;;;;2.91;100.00;99175.52;2067417;84;21583;-89
2022/10/21 06:43:22;;;;;;;34.85;19.55;;;;;;;2.90;100.00;99170.00;2093863;84;20969;-88
2022/10/21 06:46:23;;;;;;;28.35;18.95;;;;;;;2.91;100.00;99169.87;2104144;83;21031;-89
2022/10/21 06:49:24;;;;;;;30.85;20.62;;;;;;;2.96;100.00;99171.64;2099112;85;20992;-89
2022/10/21 06:52:25;;;;;;;30.57;20.30;;;;;;;3.03;100.00;99175.88;2096814;85;21010;-88
2022/10/21 06:55:28;;;;;;;33.28;20.15;;;;;;;3.13;100.00;99175.50;2042285;85;21560;-91
2022/10/21 06:58:29;;;;;;;25.02;18.70;;;;;;;3.29;100.00;99175.94;2039042;87;21053;-87
2022/10/21 07:01:33;;;;;;;30.95;21.05;;;;;;;3.49;100.00;99168.34;2038749;87;20998;-91
2022/10/21 07:04:33;;;;;;;26.35;19.27;;;;;;;3.58;100.00;99168.42;2028048;87;21105;-89
2022/10/21 07:07:36;;;;;;;30.45;21.52;;;;;;;3.66;100.00;99164.73;2017620;87;21073;-90
2022/10/21 07:10:37;;;;;;;31.17;20.55;;;;;;;3.72;100.00;99158.22;2035931;87;22215;-88
2022/10/21 07:13:37;;;;;;;29.42;20.45;;;;;;;3.79;100.00;99161.95;2033741;87;21048;-91
2022/10/21 07:16:38;;;;;;;31.07;20.23;;;;;;;3.90;100.00;99160.59;2035961;87;21062;-86
2022/10/21 07:19:39;;;;;;;30.40;18.92;;;;;;;4.06;100.00;99160.64;2035914;87;21525;-88
2022/10/21 07:22:40;;;;;;;27.32;18.00;;;;;;;4.15;100.00;99158.09;2024820;87;21076;-88
2022/10/21 07:25:41;;;;;;;27.77;18.87;;;;;;;4.23;100.00;99164.77;2040027;87;21004;-91
2022/10/21 07:28:46;;;;;;;28.98;20.10;;;;;;;4.30;100.00;99162.48;2038573;87;21024;-91
2022/10/21 07:31:45;;;;;;;27.13;18.85;;;;;;;4.34;100.00;99150.89;2040115;85;21052;-87
2022/10/21 07:34:45;;;;;;;26.60;18.65;;;;;;;4.37;100.00;99149.80;2037760;87;21043;-87
2022/10/21 07:37:46;;;;;;;25.90;19.12;;;;;;;4.29;100.00;99147.37;2003280;89;21005;-88
2022/10/21 07:40:47;;;;;;;28.45;19.70;;;;;;;4.32;100.00;99139.84;2003152;89;21398;-90
2022/10/21 07:43:48;;;;;;;29.77;19.48;;;;;;;4.36;100.00;99150.28;2021922;88;21571;-91
2022/10/21 07:46:49;;;;;;;27.15;19.17;;;;;;;4.42;100.00;99146.36;2034425;86;21536;-87
2022/10/21 07:49:49;;;;;;;26.93;21.48;;;;;;;4.51;100.00;99146.41;2036077;88;21527;-87
2022/10/21 07:52:50;;;;;;;24.30;18.20;;;;;;;4.64;100.00;99145.34;2065705;86;20981;-85
2022/10/21 07:55:51;;;;;;;32.45;21.33;;;;;;;4.73;100.00;99147.16;2066187;86;21077;-85
2022/10/21 07:58:52;;;;;;;27.27;19.35;;;;;;;4.81;100.00;99136.94;2017894;88;21098;-85
2022/10/21 08:01:53;;;;;;;28.57;19.07;;;;;;;4.88;100.00;99136.77;2054409;86;21597;-85
2022/10/21 08:04:53;;;;;;;28.23;19.73;;;;;;;4.98;100.00;99136.78;2062317;86;21155;-82
2022/10/21 08:07:54;;;;;;;27.25;17.62;;;;;;;5.08;100.00;99131.13;2061266;86;21005;-85
2022/10/21 08:10:55;;;;;;;27.55;20.43;;;;;;;5.13;100.00;99115.50;2072256;86;20991;-86
2022/10/21 08:13:56;;;;;;;28.27;19.17;;;;;;;5.20;100.00;99109.75;2028223;88;21556;-85
2022/10/21 08:16:57;;;;;;;26.42;20.43;;;;;;;5.33;100.00;99096.86;2036960;87;21005;-85
2022/10/21 08:19:57;;;;;;;33.08;21.40;;;;;;;5.49;100.00;99093.72;2036601;87;21020;-86
2022/10/21 08:22:58;;;;;;;31.57;21.15;;;;;;;5.64;100.00;99087.12;2067984;86;21001;-84
2022/10/21 08:26:03;;;;;;;25.00;18.02;;;;;;;5.82;100.00;99087.70;2069131;86;21049;-82
2022/10/21 08:29:02;;;;;;;27.82;19.10;;;;;;;5.99;100.00;99083.94;2067223;86;21100;-83
2022/10/21 08:32:02;;;;;;;27.93;19.23;;;;;;;6.13;100.00;99068.38;2047152;86;21001;-85
2022/10/21 08:35:03;;;;;;;32.30;23.73;;;;;;;6.23;100.00;99059.23;2055306;86;21028;-84
2022/10/21 08:38:05;;;;;;;35.78;28.60;;;;;;;6.32;100.00;99059.67;2066947;86;21499;-85
2022/10/21 08:41:05;;;;;;;34.75;27.75;;;;;;;6.39;100.00;99058.59;2067313;86;21181;-86
2022/10/21 08:44:06;;;;;;;40.00;30.25;;;;;;;6.49;100.00;99050.25;2055809;86;21009;-86
2022/10/21 08:47:07;;;;;;;29.63;26.20;;;;;;;6.54;100.00;99027.23;2035914;87;21092;-83
2022/10/21 08:50:08;;;;;;;36.63;26.07;;;;;;;6.54;100.00;99027.23;2030836;87;20994;-84
2022/10/21 08:53:08;;;;;;;30.50;22.22;;;;;;;6.63;100.00;99036.77;2033545;87;20980;-85
2022/10/21 08:56:09;;;;;;;32.67;22.10;;;;;;;6.68;100.00;99033.74;2038694;87;21032;-85
2022/10/21 08:59:10;;;;;;;32.30;25.92;;;;;;;6.78;100.00;99032.70;2063892;86;21476;-85
2022/10/21 09:02:11;;;;;;;30.08;22.00;;;;;;;6.90;100.00;99039.00;2070184;86;21383;-87
2022/10/21 09:05:11;;;;;;;24.87;19.20;;;;;;;7.03;100.00;99039.43;2065245;86;21000;-86
2022/10/21 09:08:13;;;;;;;25.85;18.12;;;;;;;7.07;100.00;99044.20;2070700;85;21052;-88
2022/10/21 09:11:14;;;;;;;29.40;20.05;;;;;;;7.10;100.00;99036.09;2068480;85;21012;-83
2022/10/21 09:14:15;;;;;;;28.25;19.25;;;;;;;7.06;100.00;99031.34;2070702;85;21057;-86
2022/10/21 09:17:17;;;;;;;28.80;20.05;;;;;;;7.08;100.00;99026.80;2071246;85;21051;-85
2022/10/21 09:20:17;;;;;;;25.75;19.52;;;;;;;7.12;100.00;99019.00;2069528;85;21099;-84
2022/10/21 09:23:18;;;;;;;28.98;21.33;;;;;;;7.26;100.00;99020.27;2073714;85;20980;-83
2022/10/21 09:26:19;;;;;;;29.92;21.93;;;;;;;7.33;100.00;99016.92;2073630;86;21032;-82
2022/10/21 09:29:20;;;;;;;30.32;19.20;;;;;;;7.46;100.00;99016.52;2068350;85;21004;-84
2022/10/21 09:32:21;;;;;;;27.17;20.43;;;;;;;7.57;100.00;99011.53;2024419;87;20984;-82
2022/10/21 09:35:22;;;;;;;26.75;19.20;;;;;;;7.68;100.00;99010.81;2043020;87;21487;-85
2022/10/21 09:38:24;;;;;;;25.85;19.52;;;;;;;7.77;100.00;99009.53;2026368;87;21041;-83
2022/10/21 09:41:25;;;;;;;28.42;18.82;;;;;;;7.84;100.00;99009.25;2022279;87;21088;-88
2022/10/21 09:44:26;;;;;;;24.47;18.10;;;;;;;7.92;100.00;99003.59;1997145;89;21028;-83
2022/10/21 09:47:27;;;;;;;26.23;19.35;;;;;;;8.01;100.00;99001.03;2066026;85;20992;-86
2022/10/21 09:50:27;;;;;;;26.37;19.30;;;;;;;8.05;100.00;98994.55;2063868;86;21597;-87
2022/10/21 09:53:28;;;;;;;21.90;17.65;;;;;;;8.22;100.00;98996.22;2063815;86;21013;-84
2022/10/21 09:56:29;;;;;;;27.48;19.98;;;;;;;8.26;100.00;98998.38;2051727;86;21021;-85
2022/10/21 09:59:31;;;;;;;25.77;18.12;;;;;;;8.49;100.00;98980.84;2031525;86;21012;-82
2022/10/21 10:02:32;;;;;;;21.02;15.90;;;;;;;8.80;100.00;98974.55;2032530;87;21009;-83
2022/10/21 10:05:34;;;;;;;20.17;17.98;;;;;;;9.12;100.00;98973.24;2034146;84;21032;-88
2022/10/21 10:08:34;;;;;;;23.38;18.10;;;;;;;9.27;100.00;98960.34;2034102;88;21013;-85
2022/10/21 10:11:35;;;;;;;24.85;18.10;;;;;;;9.47;100.00;98949.05;2037218;87;21069;-89
2022/10/21 10:14:37;;;;;;;24.55;18.90;;;;;;;9.64;100.00;98953.25;2031196;87;20998;-86
2022/10/21 10:17:38;;;;;;;22.05;16.23;;;;;;;9.85;100.00;98954.49;2031159;87;21044;-86
2022/10/21 10:20:39;;;;;;;22.65;17.10;;;;;;;10.03;100.00;98953.77;2037398;87;21097;-85
2022/10/21 10:23:40;;;;;;;21.37;16.48;;;;;;;10.04;100.00;98942.31;2015392;87;20997;-86
2022/10/21 10:26:41;;;;;;;22.77;18.67;;;;;;;10.07;100.00;98930.72;2036176;87;20996;-87
2022/10/21 10:29:42;;;;;;;23.47;17.30;;;;;;;10.04;100.00;98929.23;2034777;87;21068;-85
2022/10/21 10:32:43;;;;;;;22.22;17.35;;;;;;;9.91;100.00;98923.75;2023008;88;21369;-85
2022/10/21 10:35:43;;;;;;;21.23;15.63;;;;;;;9.83;100.00;98918.05;2008121;87;21068;-87
2022/10/21 10:38:44;;;;;;;24.23;16.52;;;;;;;9.78;100.00;98915.61;2036986;87;21496;-88
2022/10/21 10:41:45;;;;;;;24.15;17.80;;;;;;;9.72;100.00;98907.97;2036888;87;21039;-87
2022/10/21 10:44:46;;;;;;;23.10;17.65;;;;;;;9.69;100.00;98913.52;2036754;87;21044;-86
2022/10/21 10:47:46;;;;;;;25.20;16.27;;;;;;;9.64;100.00;98906.20;2041667;86;21059;-87
2022/10/21 10:50:47;;;;;;;22.22;16.05;;;;;;;9.61;100.00;98909.16;2062282;86;20997;-86
2022/10/21 10:53:48;;;;;;;20.92;15.93;;;;;;;9.56;100.00;98905.41;2059519;86;21048;-87
2022/10/21 10:56:49;;;;;;;19.73;15.43;;;;;;;9.55;100.00;98912.92;2056914;86;21025;-83
2022/10/21 10:59:50;;;;;;;19.55;16.37;;;;;;;9.56;100.00;98906.71;2054635;86;21033;-85
2022/10/21 11:02:51;;;;;;;22.77;17.10;;;;;;;9.63;100.00;98902.45;2064191;86;21529;-87
2022/10/21 11:05:51;;;;;;;19.37;16.05;;;;;;;9.68;100.00;98899.62;2062110;86;21005;-84
2022/10/21 11:08:52;;;;;;;18.05;13.88;;;;;;;9.75;100.00;98899.78;2056360;86;21536;-83
2022/10/21 11:11:55;;;;;;;23.22;17.55;;;;;;;9.86;100.00;98895.97;2041898;86;21043;-84
2022/10/21 11:14:55;;;;;;;22.73;17.32;;;;;;;9.94;100.00;98884.98;2055016;86;21084;-83
2022/10/21 11:17:56;;;;;;;20.88;15.93;;;;;;;10.04;100.00;98893.10;2063220;86;21427;-88
2022/10/21 11:20:57;;;;;;;24.18;18.02;;;;;;;10.11;100.00;98880.97;2061466;86;21032;-85
2022/10/21 11:23:58;;;;;;;25.23;17.17;;;;;;;10.21;100.00;98882.38;2063336;86;21014;-84
2022/10/21 11:26:59;;;;;;;22.52;17.55;;;;;;;10.23;100.00;98876.50;2061222;86;21096;-86
2022/10/21 11:29:59;;;;;;;19.57;16.62;;;;;;;10.29;100.00;98874.19;2060191;86;21006;-87
2022/10/21 11:33:00;;;;;;;23.40;17.90;;;;;;;10.31;100.00;98862.55;2063114;86;21009;-88
2022/10/21 11:36:01;;;;;;;21.73;17.15;;;;;;;10.29;100.00;98857.99;2063318;86;21040;-85
2022/10/21 11:39:02;;;;;;;22.87;18.85;;;;;;;10.24;100.00;98857.69;2060826;86;20973;-87
2022/10/21 11:42:03;;;;;;;22.62;16.90;;;;;;;10.18;100.00;98852.64;2036850;87;21092;-89
2022/10/21 11:45:03;;;;;;;23.52;16.10;;;;;;;10.18;100.00;98851.83;2040054;86;21040;-90
2022/10/21 11:48:04;;;;;;;21.97;17.67;;;;;;;10.17;100.00;98840.55;2061910;86;21068;-85
2022/10/21 11:51:06;;;;;;;22.82;17.67;;;;;;;10.15;100.00;98832.06;2069566;86;21040;-90
2022/10/21 11:54:07;;;;;;;21.15;17.20;;;;;;;10.22;100.00;98833.00;2079184;86;21729;-89
2022/10/21 11:57:08;;;;;;;21.52;17.42;;;;;;;10.31;100.00;98823.30;2081031;86;21074;-88
2022/10/21 12:00:11;;;;;;;21.70;16.62;;;;;;;10.36;100.00;98822.29;2055997;86;21110;-88
2022/10/21 12:03:12;;;;;;;25.95;18.45;;;;;;;10.41;100.00;98821.75;2024341;88;21021;-87
2022/10/21 12:06:13;;;;;;;25.65;19.32;;;;;;;10.42;100.00;98821.59;2091984;85;21032;-93
2022/10/21 12:09:14;;;;;;;22.52;18.07;;;;;;;10.47;100.00;98816.63;2083755;84;21047;-92
2022/10/21 12:12:15;;;;;;;20.68;17.80;;;;;;;10.58;100.00;98811.47;2076848;85;21008;-88
2022/10/21 12:15:15;;;;;;;22.62;18.92;;;;;;;10.66;100.00;98821.88;2086568;85;20985;-90
2022/10/21 12:18:23;;;;;;;23.65;17.73;;;;;;;10.70;100.00;98817.11;2092981;85;20966;-91
2022/10/21 12:21:26;;;;;;;22.65;15.85;;;;;;;10.69;100.00;98807.11;2087092;85;21049;-95
2022/10/21 12:24:29;;;;;;;19.32;16.10;;;;;;;10.71;100.00;98799.91;2094547;84;20977;-89
2022/10/21 12:27:30;;;;;;;22.25;17.48;;;;;;;10.78;100.00;98796.06;2093929;84;21448;-92
2022/10/21 12:30:30;;;;;;;23.27;16.07;;;;;;;10.83;100.00;98796.34;2090407;85;20985;-91
2022/10/21 12:33:31;;;;;;;20.68;15.23;;;;;;;10.88;100.00;98795.33;2091463;85;21041;-93
2022/10/21 12:36:32;;;;;;;24.05;16.35;;;;;;;10.93;100.00;98798.70;2092400;85;21536;-90
2022/10/21 12:39:33;;;;;;;19.82;16.77;;;;;;;10.92;100.00;98797.08;2094626;85;21529;-90
2022/10/21 12:42:33;;;;;;;20.37;15.50;;;;;;;10.96;100.00;98783.92;2105096;84;21043;-89
2022/10/21 12:45:34;;;;;;;19.57;14.85;;;;;;;10.99;100.00;98788.33;2079393;84;21593;-89
2022/10/21 12:48:35;;;;;;;19.10;14.83;;;;;;;11.04;100.00;98782.03;2092048;85;21148;-91
2022/10/21 12:51:43;;;;;;;23.62;16.42;;;;;;;11.13;100.00;98771.47;2031432;88;21068;-91
2022/10/21 12:54:39;;;;;;;25.70;18.42;;;;;;;11.10;100.00;98764.79;2034898;86;21537;-94
2022/10/21 12:57:42;;;;;;;20.52;14.93;;;;;;;11.20;100.00;98761.39;2042064;87;21001;-91
2022/10/21 13:00:51;;;;;;;18.52;13.65;;;;;;;11.25;100.00;98767.41;2016594;87;21020;-92
2022/10/21 13:04:04;;;;;;;;;;;;;;;;;;;;;
2022/10/21 13:07:00;;;;;;;18.50;15.35;;;;;;;11.36;100.00;98758.58;2030399;87;21116;-91
2022/10/21 13:10:11;;;;;;;;;;;;;;;;;;;;;
2022/10/21 13:13:18;;;;;;;19.55;16.60;;;;;;;11.50;100.00;98767.40;2030028;88;21630;-93
2022/10/21 13:16:20;;;;;;;21.35;16.23;;;;;;;11.55;100.00;98767.67;2031405;87;21032;-90
2022/10/21 13:19:24;;;;;;;19.30;14.65;;;;;;;11.57;100.00;98744.69;2029800;87;21581;-93
2022/10/21 13:22:24;;;;;;;19.23;14.98;;;;;;;11.60;100.00;98745.63;2042961;87;21069;-95
2022/10/21 13:25:25;;;;;;;16.75;14.07;;;;;;;11.64;100.00;98751.33;2025047;88;21029;-91
2022/10/21 13:28:26;;;;;;;16.50;14.07;;;;;;;11.66;100.00;98748.02;2030051;88;21564;-93
2022/10/21 13:31:26;;;;;;;18.77;14.18;;;;;;;11.64;100.00;98756.08;2031642;88;21001;-88
2022/10/21 13:34:28;;;;;;;17.90;14.33;;;;;;;11.62;100.00;98755.45;2032990;87;21016;-88
2022/10/21 13:37:29;;;;;;;17.60;13.50;;;;;;;11.55;100.00;98749.31;2055812;87;20982;-86
2022/10/21 13:40:29;;;;;;;15.80;13.55;;;;;;;11.54;100.00;98757.38;2102280;84;21104;-90
2022/10/21 13:43:30;;;;;;;19.45;15.20;;;;;;;11.48;100.00;98736.63;2093872;84;21018;-88
2022/10/21 13:46:34;;;;;;;18.92;13.55;;;;;;;11.44;100.00;98725.39;2036037;87;20970;-90
2022/10/21 13:49:34;;;;;;;17.67;13.13;;;;;;;11.39;100.00;98740.35;2055959;85;21803;-94
2022/10/21 13:52:35;;;;;;;17.67;14.20;;;;;;;11.35;100.00;98757.45;2060716;85;21032;-92
2022/10/21 13:55:35;;;;;;;18.85;14.45;;;;;;;11.32;100.00;98755.18;2110608;79;21095;-92